Time;durP1;ratioP1;P1;durP2;ratioP2;P2;SDS_P1;SDS_P2;PMS_P1;PMS_P2;Temp;Humidity;BMP_temperature;BMP_pressure;BME280_temperature;BME280_humidity;BME280_pressure;Samples;Min_cycle;Max_cycle;Signal;HPM_P1;HPM_P2
2023/04/30 00:00:37;;;;;;;;;;;9.40;80.40;;;;;;4996625;28;19909;-86
2023/04/30 00:03:43;;;;;;;;;;;9.40;80.60;;;;;;5017419;28;20009;-86
2023/04/30 00:06:20;;;;;;;;;;;9.30;80.70;;;;;;5007915;28;19914;-85
2023/04/30 00:08:45;;;;;;;;;;;9.40;81.30;;;;;;5016413;28;19913;-85
2023/04/30 00:11:24;;;;;;;;;;;;;;;;;;;;;
2023/04/30 00:13:50;;;;;;;;;;;9.20;81.50;;;;;;5015788;28;20011;-86
2023/04/30 00:16:19;;;;;;;;;;;9.10;81.60;;;;;;4997505;28;20020;-86
2023/04/30 00:18:45;;;;;;;;;;;9.10;81.60;;;;;;4997263;28;19985;-86
2023/04/30 00:21:10;;;;;;;;;;;9.10;81.60;;;;;;4996506;28;19914;-86
2023/04/30 00:23:36;;;;;;;;;;;9.10;81.90;;;;;;4989231;28;19909;-85
2023/04/30 00:26:06;;;;;;;;;;;9.00;82.20;;;;;;4997854;28;20001;-85
2023/04/30 00:28:32;;;;;;;;;;;9.00;82.30;;;;;;4994595;28;19910;-86
2023/04/30 00:30:57;;;;;;;;;;;8.90;82.60;;;;;;4997238;28;19909;-86
2023/04/30 00:33:23;;;;;;;;;;;8.90;82.60;;;;;;5012685;28;19921;-86
2023/04/30 00:35:48;;;;;;;;;;;8.90;82.50;;;;;;5014799;28;19913;-86
2023/04/30 00:38:17;;;;;;;;;;;8.90;82.60;;;;;;4995186;28;20371;-85
2023/04/30 00:40:45;;;;;;;;;;;8.80;82.60;;;;;;4997940;28;19909;-85
2023/04/30 00:43:11;;;;;;;;;;;8.80;83.30;;;;;;5000528;28;19915;-86
2023/04/30 00:45:39;;;;;;;;;;;8.70;82.90;;;;;;4996944;28;20285;-85
2023/04/30 00:48:05;;;;;;;;;;;8.60;83.00;;;;;;4996236;28;20012;-85
2023/04/30 00:50:33;;;;;;;;;;;8.70;82.90;;;;;;4996865;28;20526;-85
2023/04/30 00:53:05;;;;;;;;;;;8.60;83.00;;;;;;4995955;28;19941;-85
2023/04/30 00:55:38;;;;;;;;;;;8.80;82.70;;;;;;4988766;28;20020;-85
2023/04/30 00:58:07;;;;;;;;;;;8.80;82.70;;;;;;5015738;28;19909;-85
2023/04/30 01:00:35;;;;;;;;;;;8.70;83.40;;;;;;5014825;28;19917;-86
2023/04/30 01:03:01;;;;;;;;;;;8.70;83.30;;;;;;5013231;28;20406;-86
2023/04/30 01:05:41;;;;;;;;;;;8.70;83.50;;;;;;4997030;28;19913;-85
2023/04/30 01:08:08;;;;;;;;;;;8.70;83.00;;;;;;5014599;28;19956;-86
2023/04/30 01:10:52;;;;;;;;;;;8.70;82.90;;;;;;4995689;28;20286;-86
2023/04/30 01:13:24;;;;;;;;;;;8.80;83.30;;;;;;4989110;28;19917;-85
2023/04/30 01:16:09;;;;;;;;;;;8.70;83.50;;;;;;4997493;28;20012;-86
2023/04/30 01:18:38;;;;;;;;;;;8.70;83.30;;;;;;5009191;28;19906;-85
2023/04/30 01:21:04;;;;;;;;;;;8.60;83.30;;;;;;5001089;28;19914;-85
2023/04/30 01:24:05;;;;;;;;;;;8.60;83.10;;;;;;5016170;28;19910;-85
2023/04/30 01:26:42;;;;;;;;;;;8.50;83.00;;;;;;4956616;28;19917;-85
2023/04/30 01:29:09;;;;;;;;;;;8.50;82.80;;;;;;5007336;28;20375;-86
2023/04/30 01:31:34;;;;;;;;;;;8.50;82.80;;;;;;5013079;28;20010;-85
2023/04/30 01:34:00;;;;;;;;;;;8.40;83.00;;;;;;5005379;28;19957;-86
2023/04/30 01:36:34;;;;;;;;;;;8.40;83.00;;;;;;5013216;28;19921;-85
2023/04/30 01:39:20;;;;;;;;;;;8.40;83.20;;;;;;4995984;28;20379;-85
2023/04/30 01:42:07;;;;;;;;;;;8.30;83.20;;;;;;4963105;28;20310;-86
2023/04/30 01:44:32;;;;;;;;;;;8.20;83.00;;;;;;5000227;28;20000;-85
2023/04/30 01:47:09;;;;;;;;;;;8.20;83.50;;;;;;4992320;28;20319;-85
2023/04/30 01:49:41;;;;;;;;;;;8.20;84.10;;;;;;4995866;28;20359;-85
2023/04/30 01:52:30;;;;;;;;;;;8.20;84.00;;;;;;5012952;28;19913;-85
2023/04/30 01:54:59;;;;;;;;;;;8.10;84.70;;;;;;5013314;28;19924;-85
2023/04/30 01:57:34;;;;;;;;;;;8.10;84.70;;;;;;4995594;28;20395;-86
2023/04/30 02:00:00;;;;;;;;;;;8.10;84.60;;;;;;4994808;28;20020;-85
2023/04/30 02:02:25;;;;;;;;;;;8.10;84.50;;;;;;4986983;28;19913;-85
2023/04/30 02:04:51;;;;;;;;;;;8.10;84.40;;;;;;4987115;28;19909;-85
2023/04/30 02:07:26;;;;;;;;;;;8.10;84.40;;;;;;5012726;28;19914;-86
2023/04/30 02:09:51;;;;;;;;;;;8.10;84.20;;;;;;4995412;28;19965;-85
2023/04/30 02:12:19;;;;;;;;;;;8.20;84.20;;;;;;5012844;28;19956;-85
2023/04/30 02:14:45;;;;;;;;;;;8.20;84.40;;;;;;4998019;28;19910;-86
2023/04/30 02:17:10;;;;;;;;;;;8.20;84.00;;;;;;5003908;28;19941;-85
2023/04/30 02:19:36;;;;;;;;;;;8.10;84.30;;;;;;5010616;28;20437;-86
2023/04/30 02:22:06;;;;;;;;;;;8.20;84.30;;;;;;4995655;28;19910;-86
2023/04/30 02:24:44;;;;;;;;;;;8.10;84.20;;;;;;4994590;28;19909;-85
2023/04/30 02:27:09;;;;;;;;;;;8.10;84.30;;;;;;4995194;28;19910;-85
2023/04/30 02:29:35;;;;;;;;;;;8.10;84.30;;;;;;4994815;28;20382;-85
2023/04/30 02:32:30;;;;;;;;;;;8.00;84.20;;;;;;4993879;28;19914;-85
2023/04/30 02:34:58;;;;;;;;;;;8.00;84.60;;;;;;4983743;28;19996;-85
2023/04/30 02:37:31;;;;;;;;;;;8.00;84.50;;;;;;4991284;28;20299;-86
2023/04/30 02:39:57;;;;;;;;;;;8.20;84.00;;;;;;4991653;28;19961;-85
2023/04/30 02:42:22;;;;;;;;;;;8.10;84.10;;;;;;4992397;28;19918;-85
2023/04/30 02:44:50;;;;;;;;;;;7.90;84.40;;;;;;4991237;28;19920;-85
2023/04/30 02:47:16;;;;;;;;;;;7.90;84.70;;;;;;4992052;28;19956;-85
2023/04/30 02:49:41;;;;;;;;;;;7.90;85.10;;;;;;4993905;28;19985;-85
2023/04/30 02:52:10;;;;;;;;;;;7.90;85.10;;;;;;4985329;28;20006;-85
2023/04/30 02:54:41;;;;;;;;;;;8.00;84.70;;;;;;4987984;28;20279;-85
2023/04/30 02:57:07;;;;;;;;;;;8.00;84.70;;;;;;5012328;28;20368;-85
2023/04/30 02:59:35;;;;;;;;;;;7.90;84.80;;;;;;5012170;28;19914;-85
2023/04/30 03:02:20;;;;;;;;;;;7.80;84.90;;;;;;4993961;28;19932;-85
2023/04/30 03:04:45;;;;;;;;;;;7.80;84.90;;;;;;4995681;28;19914;-86
2023/04/30 03:07:11;;;;;;;;;;;7.80;85.10;;;;;;4990282;28;20346;-86
2023/04/30 03:09:40;;;;;;;;;;;7.80;85.20;;;;;;4998325;28;19909;-85
2023/04/30 03:12:08;;;;;;;;;;;7.80;85.40;;;;;;4998663;28;19975;-86
2023/04/30 03:14:45;;;;;;;;;;;7.70;85.30;;;;;;5015765;28;19909;-85
2023/04/30 03:17:16;;;;;;;;;;;7.80;85.40;;;;;;5015607;28;19963;-86
2023/04/30 03:19:51;;;;;;;;;;;7.80;85.50;;;;;;4998366;28;19909;-85
2023/04/30 03:22:22;;;;;;;;;;;7.70;85.10;;;;;;5010944;28;19914;-85
2023/04/30 03:25:14;;;;;;;;;;;7.60;84.80;;;;;;4988823;28;19965;-85
2023/04/30 03:27:42;;;;;;;;;;;7.40;84.80;;;;;;4978632;28;19910;-85
2023/04/30 03:30:08;;;;;;;;;;;7.30;84.70;;;;;;4984619;28;19910;-85
2023/04/30 03:32:49;;;;;;;;;;;7.30;85.10;;;;;;4997202;28;19941;-86
2023/04/30 03:35:15;;;;;;;;;;;7.30;85.00;;;;;;5015413;28;20291;-85
2023/04/30 03:37:40;;;;;;;;;;;7.20;85.20;;;;;;4996978;28;19914;-85
2023/04/30 03:40:17;;;;;;;;;;;7.10;85.50;;;;;;4988295;28;19910;-85
2023/04/30 03:43:02;;;;;;;;;;;7.20;85.50;;;;;;4995896;28;19990;-85
2023/04/30 03:45:28;;;;;;;;;;;7.10;85.50;;;;;;4978362;28;20398;-85
2023/04/30 03:47:53;;;;;;;;;;;7.00;85.70;;;;;;4995808;28;19910;-85
2023/04/30 03:50:29;;;;;;;;;;;7.00;85.60;;;;;;4978654;28;19984;-85
2023/04/30 03:53:11;;;;;;;;;;;6.90;85.70;;;;;;4977955;28;19968;-85
2023/04/30 03:55:40;;;;;;;;;;;7.00;85.50;;;;;;4991345;28;20033;-85
2023/04/30 03:58:05;;;;;;;;;;;7.00;85.70;;;;;;4995594;28;19909;-85
2023/04/30 04:00:39;;;;;;;;;;;7.00;86.10;;;;;;4997401;28;20011;-85
2023/04/30 04:03:04;;;;;;;;;;;7.10;86.20;;;;;;5014356;28;20355;-85
2023/04/30 04:05:33;;;;;;;;;;;7.20;86.30;;;;;;5013803;28;20023;-85
2023/04/30 04:07:59;;;;;;;;;;;7.20;86.10;;;;;;4997402;28;19916;-85
2023/04/30 04:10:30;;;;;;;;;;;7.30;86.30;;;;;;5011898;28;20311;-85
2023/04/30 04:12:56;;;;;;;;;;;7.30;86.20;;;;;;4989945;28;20269;-85
2023/04/30 04:15:27;;;;;;;;;;;7.30;86.30;;;;;;5013622;28;20001;-85
2023/04/30 04:17:52;;;;;;;;;;;7.30;86.20;;;;;;5015168;28;19910;-85
2023/04/30 04:20:39;;;;;;;;;;;7.30;86.10;;;;;;5016260;28;20375;-85
2023/04/30 04:23:04;;;;;;;;;;;7.30;86.20;;;;;;5017067;28;20023;-85
2023/04/30 04:25:29;;;;;;;;;;;7.30;86.30;;;;;;5017380;28;19917;-85
2023/04/30 04:28:00;;;;;;;;;;;7.20;86.10;;;;;;5015147;28;19914;-86
2023/04/30 04:30:26;;;;;;;;;;;7.10;86.10;;;;;;4988217;28;19910;-85
2023/04/30 04:32:52;;;;;;;;;;;7.10;86.50;;;;;;4997475;28;19973;-85
2023/04/30 04:35:18;;;;;;;;;;;7.20;86.60;;;;;;4998167;28;19956;-85
2023/04/30 04:37:47;;;;;;;;;;;7.30;86.50;;;;;;5015685;28;20366;-85
2023/04/30 04:40:12;;;;;;;;;;;7.30;86.30;;;;;;4998580;28;20466;-85
2023/04/30 04:42:38;;;;;;;;;;;7.20;86.30;;;;;;4996195;28;19913;-85
2023/04/30 04:45:07;;;;;;;;;;;7.20;85.90;;;;;;5007185;28;19910;-85
2023/04/30 04:47:32;;;;;;;;;;;7.20;86.40;;;;;;4997493;28;20104;-85
2023/04/30 04:49:58;;;;;;;;;;;7.30;86.50;;;;;;4997987;28;20429;-85
2023/04/30 04:52:23;;;;;;;;;;;7.40;86.30;;;;;;5014896;28;19940;-85
2023/04/30 04:54:49;;;;;;;;;;;7.50;86.00;;;;;;4997122;28;20295;-84
2023/04/30 04:57:15;;;;;;;;;;;7.50;86.10;;;;;;5014963;28;19982;-85
2023/04/30 04:59:40;;;;;;;;;;;7.50;86.00;;;;;;4996108;28;19913;-85
2023/04/30 05:02:06;;;;;;;;;;;7.60;85.60;;;;;;4982548;28;19910;-85
2023/04/30 05:04:31;;;;;;;;;;;7.70;85.70;;;;;;5002031;28;19921;-84
2023/04/30 05:06:57;;;;;;;;;;;7.60;85.50;;;;;;5002411;28;20396;-85
2023/04/30 05:09:22;;;;;;;;;;;7.60;85.30;;;;;;4995313;28;19914;-85
2023/04/30 05:11:48;;;;;;;;;;;7.70;85.40;;;;;;4995391;28;19920;-85
2023/04/30 05:14:13;;;;;;;;;;;7.80;85.00;;;;;;4996439;28;19913;-85
2023/04/30 05:16:39;;;;;;;;;;;7.80;84.70;;;;;;4996264;28;19913;-85
2023/04/30 05:19:04;;;;;;;;;;;7.80;84.40;;;;;;4996783;28;20379;-85
2023/04/30 05:21:30;;;;;;;;;;;7.70;84.50;;;;;;4996388;28;19953;-85
2023/04/30 05:23:56;;;;;;;;;;;7.80;84.60;;;;;;4994960;28;19914;-85
2023/04/30 05:26:26;;;;;;;;;;;7.70;84.80;;;;;;4987923;28;19916;-85
2023/04/30 05:28:54;;;;;;;;;;;7.80;85.30;;;;;;4996618;28;19909;-85
2023/04/30 05:31:22;;;;;;;;;;;7.90;85.10;;;;;;4996046;28;20291;-86
2023/04/30 05:33:48;;;;;;;;;;;7.80;85.30;;;;;;5012551;28;20498;-86
2023/04/30 05:36:19;;;;;;;;;;;8.00;85.50;;;;;;4995459;28;19975;-86
2023/04/30 05:38:50;;;;;;;;;;;8.10;85.10;;;;;;4988448;28;20319;-85
2023/04/30 05:41:16;;;;;;;;;;;8.30;84.80;;;;;;4994781;28;19910;-86
2023/04/30 05:43:41;;;;;;;;;;;8.50;84.30;;;;;;5013192;28;19910;-86
2023/04/30 05:46:07;;;;;;;;;;;8.80;83.80;;;;;;4995513;28;20012;-85
2023/04/30 05:48:32;;;;;;;;;;;9.10;82.50;;;;;;5013274;28;19921;-86
2023/04/30 05:50:57;;;;;;;;;;;9.50;81.50;;;;;;4996009;28;19928;-86
2023/04/30 05:53:23;;;;;;;;;;;9.80;80.20;;;;;;5012125;28;20012;-85
2023/04/30 05:55:49;;;;;;;;;;;9.90;79.70;;;;;;4987855;28;19914;-85
2023/04/30 05:58:15;;;;;;;;;;;10.10;79.70;;;;;;4994028;28;19910;-85
2023/04/30 06:00:40;;;;;;;;;;;10.00;78.70;;;;;;4993652;28;19937;-85
2023/04/30 06:03:06;;;;;;;;;;;9.80;79.80;;;;;;4993221;28;19932;-85
2023/04/30 06:05:32;;;;;;;;;;;9.70;80.20;;;;;;4994695;28;20603;-85
2023/04/30 06:07:59;;;;;;;;;;;10.00;80.40;;;;;;5012831;28;19916;-85
2023/04/30 06:10:34;;;;;;;;;;;10.40;78.60;;;;;;4992383;28;20256;-86
2023/04/30 06:13:00;;;;;;;;;;;10.70;78.30;;;;;;5011069;28;20347;-85
2023/04/30 06:15:25;;;;;;;;;;;10.80;77.50;;;;;;4987420;28;19921;-85
2023/04/30 06:17:51;;;;;;;;;;;10.80;76.90;;;;;;4995552;28;20372;-85
2023/04/30 06:20:22;;;;;;;;;;;10.90;76.60;;;;;;5013633;28;19917;-85
2023/04/30 06:22:47;;;;;;;;;;;10.70;76.70;;;;;;5013384;28;19910;-85
2023/04/30 06:25:13;;;;;;;;;;;10.30;77.70;;;;;;4991877;28;19979;-85
2023/04/30 06:27:38;;;;;;;;;;;10.00;79.10;;;;;;4989904;28;19918;-86
2023/04/30 06:30:07;;;;;;;;;;;9.70;80.70;;;;;;4995343;28;19910;-85
2023/04/30 06:32:33;;;;;;;;;;;9.60;81.40;;;;;;4995053;28;20387;-85
2023/04/30 06:34:59;;;;;;;;;;;9.50;81.80;;;;;;4995447;28;19991;-86
2023/04/30 06:37:24;;;;;;;;;;;9.50;82.10;;;;;;4994200;28;19913;-85
2023/04/30 06:40:09;;;;;;;;;;;;;;;;;;;;;
2023/04/30 06:42:39;;;;;;;;;;;9.60;82.20;;;;;;5011218;28;19914;-85
2023/04/30 06:45:08;;;;;;;;;;;9.50;82.10;;;;;;4986655;28;19910;-86
2023/04/30 06:47:36;;;;;;;;;;;9.50;82.80;;;;;;5011724;28;19909;-86
2023/04/30 06:50:05;;;;;;;;;;;9.50;82.70;;;;;;4994531;28;19909;-86
2023/04/30 06:52:31;;;;;;;;;;;9.60;82.50;;;;;;4986434;28;20383;-86
2023/04/30 06:54:56;;;;;;;;;;;9.60;82.50;;;;;;4994851;28;19920;-85
2023/04/30 06:57:23;;;;;;;;;;;9.60;81.80;;;;;;5011495;28;19914;-86
2023/04/30 06:59:51;;;;;;;;;;;9.60;82.20;;;;;;4988272;28;19918;-85
2023/04/30 07:02:19;;;;;;;;;;;9.70;82.80;;;;;;4993322;28;19984;-86
2023/04/30 07:04:45;;;;;;;;;;;10.00;82.90;;;;;;4984877;28;19921;-86
2023/04/30 07:07:11;;;;;;;;;;;10.20;82.30;;;;;;4985123;28;19914;-85
2023/04/30 07:09:36;;;;;;;;;;;10.10;81.40;;;;;;4989430;28;19913;-86
2023/04/30 07:12:02;;;;;;;;;;;10.20;82.60;;;;;;5012310;28;20324;-86
2023/04/30 07:14:28;;;;;;;;;;;10.40;82.70;;;;;;5012570;28;20007;-86
2023/04/30 07:17:01;;;;;;;;;;;10.50;82.20;;;;;;4994515;28;20379;-86
2023/04/30 07:19:26;;;;;;;;;;;10.60;80.80;;;;;;5008130;28;19925;-86
2023/04/30 07:21:52;;;;;;;;;;;10.50;80.40;;;;;;5001702;28;19918;-86
2023/04/30 07:24:17;;;;;;;;;;;10.50;79.50;;;;;;4989564;28;19913;-85
2023/04/30 07:26:43;;;;;;;;;;;10.50;79.50;;;;;;4986312;28;19918;-86
2023/04/30 07:29:08;;;;;;;;;;;10.50;79.80;;;;;;4994753;28;19916;-86
2023/04/30 07:31:34;;;;;;;;;;;10.60;79.40;;;;;;4994275;28;19909;-85
2023/04/30 07:33:59;;;;;;;;;;;10.60;79.40;;;;;;4992955;28;19924;-86
2023/04/30 07:36:26;;;;;;;;;;;10.60;79.40;;;;;;4981621;28;19937;-86
2023/04/30 07:38:51;;;;;;;;;;;10.50;80.10;;;;;;4984827;28;19919;-86
2023/04/30 07:41:17;;;;;;;;;;;10.60;80.00;;;;;;4981408;28;19914;-86
2023/04/30 07:43:43;;;;;;;;;;;10.60;78.90;;;;;;4987385;28;19924;-86
2023/04/30 07:46:08;;;;;;;;;;;10.80;80.20;;;;;;4983720;28;19914;-86
2023/04/30 07:48:34;;;;;;;;;;;10.90;77.40;;;;;;4990041;28;19917;-86
2023/04/30 07:50:59;;;;;;;;;;;11.00;77.60;;;;;;5022774;28;19945;-83
2023/04/30 07:53:25;;;;;;;;;;;11.00;78.70;;;;;;4994021;28;19922;-85
2023/04/30 07:55:50;;;;;;;;;;;11.10;78.70;;;;;;5016365;28;19933;-85
2023/04/30 07:58:16;;;;;;;;;;;11.10;78.00;;;;;;5000555;28;19985;-85
2023/04/30 08:00:41;;;;;;;;;;;11.20;77.50;;;;;;4998836;28;19913;-85
2023/04/30 08:03:07;;;;;;;;;;;11.20;77.50;;;;;;4995312;28;19924;-85
2023/04/30 08:05:32;;;;;;;;;;;11.20;77.40;;;;;;4992431;28;19952;-84
2023/04/30 08:07:58;;;;;;;;;;;11.20;78.60;;;;;;4992043;28;19924;-85
2023/04/30 08:10:25;;;;;;;;;;;11.40;78.20;;;;;;4991491;28;19953;-85
2023/04/30 08:12:51;;;;;;;;;;;11.50;77.50;;;;;;5006953;28;20016;-86
2023/04/30 08:15:20;;;;;;;;;;;11.60;77.30;;;;;;4996462;28;19964;-86
2023/04/30 08:17:49;;;;;;;;;;;11.70;77.40;;;;;;4991312;28;19914;-86
2023/04/30 08:20:15;;;;;;;;;;;11.60;77.40;;;;;;4991783;28;19921;-86
2023/04/30 08:22:41;;;;;;;;;;;11.70;76.40;;;;;;4994774;28;19913;-86
2023/04/30 08:25:12;;;;;;;;;;;11.80;73.80;;;;;;4988543;28;19921;-86
2023/04/30 08:27:41;;;;;;;;;;;12.00;73.20;;;;;;4988985;28;19920;-85
2023/04/30 08:30:07;;;;;;;;;;;12.00;74.00;;;;;;5009766;28;19921;-85
2023/04/30 08:32:33;;;;;;;;;;;11.90;74.40;;;;;;4987700;28;20363;-85
2023/04/30 08:34:59;;;;;;;;;;;11.90;76.10;;;;;;4983268;28;19971;-86
2023/04/30 08:37:24;;;;;;;;;;;12.00;76.50;;;;;;4990466;28;20359;-85
2023/04/30 08:39:50;;;;;;;;;;;12.00;74.70;;;;;;4990096;28;20290;-85
2023/04/30 08:42:16;;;;;;;;;;;12.00;74.30;;;;;;4995014;28;20051;-85
2023/04/30 08:44:44;;;;;;;;;;;12.00;74.20;;;;;;4985752;28;19911;-85
2023/04/30 08:47:13;;;;;;;;;;;12.00;74.10;;;;;;4993681;28;19913;-85
2023/04/30 08:49:42;;;;;;;;;;;12.10;75.90;;;;;;5008767;28;19913;-85
2023/04/30 08:52:07;;;;;;;;;;;12.20;76.00;;;;;;4988501;28;20334;-86
2023/04/30 08:54:34;;;;;;;;;;;12.40;74.50;;;;;;4988916;28;19925;-84
2023/04/30 08:57:00;;;;;;;;;;;12.40;72.50;;;;;;5004139;28;20371;-86
2023/04/30 08:59:25;;;;;;;;;;;12.40;71.90;;;;;;4992475;28;20268;-85
2023/04/30 09:01:51;;;;;;;;;;;12.40;72.30;;;;;;5011603;28;19925;-85
2023/04/30 09:04:16;;;;;;;;;;;12.50;74.00;;;;;;4985413;28;20300;-85
2023/04/30 09:06:42;;;;;;;;;;;12.60;75.00;;;;;;4976869;28;19910;-86
2023/04/30 09:09:10;;;;;;;;;;;12.70;73.50;;;;;;4993310;28;20302;-85
2023/04/30 09:11:35;;;;;;;;;;;12.80;73.10;;;;;;4997136;28;19944;-85
2023/04/30 09:14:01;;;;;;;;;;;12.80;71.20;;;;;;4988450;28;20350;-86
2023/04/30 09:16:31;;;;;;;;;;;12.80;71.70;;;;;;5010684;28;22309;-85
2023/04/30 09:18:57;;;;;;;;;;;12.80;71.80;;;;;;4987787;28;19909;-85
2023/04/30 09:21:33;;;;;;;;;;;12.90;73.10;;;;;;4996651;28;19909;-86
2023/04/30 09:24:00;;;;;;;;;;;13.00;72.40;;;;;;4994633;28;19960;-85
2023/04/30 09:26:27;;;;;;;;;;;13.20;71.60;;;;;;4993073;28;20430;-85
2023/04/30 09:28:56;;;;;;;;;;;13.10;70.20;;;;;;4992451;28;19941;-86
2023/04/30 09:31:22;;;;;;;;;;;13.10;69.60;;;;;;4982281;28;19964;-87
2023/04/30 09:33:47;;;;;;;;;;;13.20;69.80;;;;;;4990176;28;19956;-87
2023/04/30 09:36:13;;;;;;;;;;;13.30;68.40;;;;;;5010355;28;19914;-88
2023/04/30 09:38:38;;;;;;;;;;;13.20;69.90;;;;;;4998556;28;20009;-88
2023/04/30 09:41:04;;;;;;;;;;;13.30;69.40;;;;;;4985646;28;20166;-87
2023/04/30 09:43:29;;;;;;;;;;;13.40;70.80;;;;;;4976760;28;19957;-86
2023/04/30 09:45:56;;;;;;;;;;;13.60;70.20;;;;;;4999413;28;19925;-86
2023/04/30 09:48:22;;;;;;;;;;;13.60;67.30;;;;;;5010773;28;20379;-86
2023/04/30 09:50:48;;;;;;;;;;;13.60;67.00;;;;;;4989782;28;19914;-86
2023/04/30 09:53:16;;;;;;;;;;;13.60;67.80;;;;;;4988984;28;20501;-86
2023/04/30 09:55:46;;;;;;;;;;;13.60;68.00;;;;;;4986995;28;19969;-87
2023/04/30 09:58:12;;;;;;;;;;;13.70;66.90;;;;;;4993270;28;19979;-86
2023/04/30 10:00:38;;;;;;;;;;;13.80;69.70;;;;;;4992588;28;20418;-87
2023/04/30 10:03:08;;;;;;;;;;;13.80;70.00;;;;;;4989465;28;19920;-87
2023/04/30 10:05:40;;;;;;;;;;;13.80;70.40;;;;;;4983963;28;19924;-87
2023/04/30 10:08:07;;;;;;;;;;;14.00;69.00;;;;;;4983328;28;19924;-87
2023/04/30 10:10:36;;;;;;;;;;;14.00;68.00;;;;;;4989020;28;19952;-87
2023/04/30 10:13:03;;;;;;;;;;;14.00;65.70;;;;;;4988008;28;19921;-87
2023/04/30 10:15:36;;;;;;;;;;;14.10;69.00;;;;;;4993679;28;19920;-87
2023/04/30 10:18:03;;;;;;;;;;;14.00;69.20;;;;;;4994309;28;19917;-87
2023/04/30 10:20:30;;;;;;;;;;;14.20;68.10;;;;;;4994278;28;19917;-87
2023/04/30 10:22:56;;;;;;;;;;;14.10;67.00;;;;;;5004653;28;20394;-87
2023/04/30 10:25:22;;;;;;;;;;;14.20;64.70;;;;;;5008076;28;19910;-87
2023/04/30 10:27:47;;;;;;;;;;;14.20;66.50;;;;;;5015127;28;19956;-87
2023/04/30 10:30:14;;;;;;;;;;;14.20;67.80;;;;;;5011474;28;19948;-87
2023/04/30 10:32:50;;;;;;;;;;;14.20;66.80;;;;;;4993557;28;19959;-87
2023/04/30 10:35:22;;;;;;;;;;;14.30;65.20;;;;;;5010403;28;19921;-87
2023/04/30 10:37:52;;;;;;;;;;;14.20;65.80;;;;;;4988653;28;19909;-87
2023/04/30 10:40:18;;;;;;;;;;;14.50;66.00;;;;;;5002062;28;19913;-87
2023/04/30 10:42:47;;;;;;;;;;;14.50;64.50;;;;;;5003832;28;20004;-87
2023/04/30 10:45:14;;;;;;;;;;;14.50;67.60;;;;;;5010210;28;19949;-87
2023/04/30 10:47:46;;;;;;;;;;;14.60;65.30;;;;;;4993939;28;19921;-87
2023/04/30 10:50:12;;;;;;;;;;;14.60;67.50;;;;;;4980917;28;19913;-89
2023/04/30 10:52:37;;;;;;;;;;;14.60;63.90;;;;;;4983727;28;19922;-87
2023/04/30 10:55:04;;;;;;;;;;;14.60;64.10;;;;;;4990451;28;19924;-86
2023/04/30 10:57:29;;;;;;;;;;;14.70;64.20;;;;;;5006421;28;20018;-87
2023/04/30 11:00:08;;;;;;;;;;;14.70;63.90;;;;;;4985006;28;20383;-90
2023/04/30 11:02:52;;;;;;;;;;;14.70;63.30;;;;;;4995278;28;19922;-88
2023/04/30 11:05:42;;;;;;;;;;;14.80;62.40;;;;;;4984092;28;19914;-87
2023/04/30 11:08:11;;;;;;;;;;;14.60;60.90;;;;;;4987770;28;19928;-88
2023/04/30 11:10:37;;;;;;;;;;;14.70;62.80;;;;;;5007759;28;20391;-87
2023/04/30 11:13:06;;;;;;;;;;;14.80;61.20;;;;;;4992677;28;19925;-87
2023/04/30 11:15:43;;;;;;;;;;;14.80;61.10;;;;;;5009692;28;20137;-87
2023/04/30 11:18:09;;;;;;;;;;;14.80;62.60;;;;;;5007463;28;19984;-87
2023/04/30 11:20:41;;;;;;;;;;;14.90;62.50;;;;;;5007342;28;20410;-88
2023/04/30 11:23:15;;;;;;;;;;;14.90;64.20;;;;;;4991807;28;19933;-88
2023/04/30 11:25:42;;;;;;;;;;;14.90;63.90;;;;;;5000885;28;19913;-88
2023/04/30 11:28:12;;;;;;;;;;;15.00;64.90;;;;;;5000200;28;19922;-88
2023/04/30 11:30:43;;;;;;;;;;;15.10;63.10;;;;;;5012190;28;19913;-87
2023/04/30 11:33:10;;;;;;;;;;;15.10;63.60;;;;;;4993959;28;19928;-87
2023/04/30 11:35:36;;;;;;;;;;;15.10;61.90;;;;;;5003880;28;20012;-87
2023/04/30 11:38:02;;;;;;;;;;;15.10;64.00;;;;;;4996135;28;20000;-87
2023/04/30 11:40:34;;;;;;;;;;;15.30;65.30;;;;;;4996215;28;20525;-88
2023/04/30 11:42:59;;;;;;;;;;;15.30;61.00;;;;;;5013879;28;19963;-87
2023/04/30 11:45:30;;;;;;;;;;;15.20;61.60;;;;;;4994105;28;20372;-87
2023/04/30 11:47:56;;;;;;;;;;;15.40;61.10;;;;;;4996259;28;19920;-87
2023/04/30 11:50:28;;;;;;;;;;;15.30;60.40;;;;;;4996262;28;20449;-87
2023/04/30 11:52:55;;;;;;;;;;;15.30;62.90;;;;;;4997651;28;20008;-87
2023/04/30 11:55:21;;;;;;;;;;;15.30;59.70;;;;;;5003779;28;19918;-88
2023/04/30 11:57:51;;;;;;;;;;;15.40;62.60;;;;;;4991327;28;19932;-87
2023/04/30 12:00:24;;;;;;;;;;;15.40;63.40;;;;;;4992365;28;19914;-88
2023/04/30 12:02:49;;;;;;;;;;;15.50;61.40;;;;;;4993212;28;19913;-88
2023/04/30 12:05:16;;;;;;;;;;;15.60;63.70;;;;;;4983329;28;19921;-88
2023/04/30 12:07:48;;;;;;;;;;;15.60;60.30;;;;;;5010838;28;19917;-88
2023/04/30 12:10:23;;;;;;;;;;;15.60;59.00;;;;;;4979921;28;20011;-87
2023/04/30 12:12:50;;;;;;;;;;;15.60;59.30;;;;;;4988896;28;19922;-88
2023/04/30 12:15:25;;;;;;;;;;;15.40;60.60;;;;;;4993027;28;20300;-87
2023/04/30 12:17:53;;;;;;;;;;;15.60;63.50;;;;;;5009094;28;20322;-88
2023/04/30 12:20:20;;;;;;;;;;;16.00;62.40;;;;;;4988498;28;19920;-87
2023/04/30 12:22:49;;;;;;;;;;;15.80;61.40;;;;;;4996462;28;19917;-89
2023/04/30 12:25:18;;;;;;;;;;;15.80;61.50;;;;;;4995584;28;19913;-85
2023/04/30 12:27:44;;;;;;;;;;;15.90;58.10;;;;;;4993684;28;19948;-87
2023/04/30 12:30:10;;;;;;;;;;;15.90;58.00;;;;;;4980911;28;20370;-85
2023/04/30 12:32:40;;;;;;;;;;;15.60;57.90;;;;;;4988309;28;19925;-85
2023/04/30 12:35:10;;;;;;;;;;;15.40;58.40;;;;;;5000978;28;20414;-87
2023/04/30 12:37:40;;;;;;;;;;;15.50;57.70;;;;;;4999349;28;19921;-86
2023/04/30 12:40:06;;;;;;;;;;;15.50;57.60;;;;;;4986352;28;20303;-86
2023/04/30 12:42:33;;;;;;;;;;;15.50;59.70;;;;;;4999593;28;19922;-87
2023/04/30 12:44:58;;;;;;;;;;;15.60;59.60;;;;;;4982302;28;19914;-87
2023/04/30 12:47:31;;;;;;;;;;;15.70;58.60;;;;;;4998736;28;20494;-86
2023/04/30 12:49:57;;;;;;;;;;;15.70;59.90;;;;;;4987026;28;19959;-87
2023/04/30 12:52:24;;;;;;;;;;;16.00;62.20;;;;;;4986170;28;20013;-86
2023/04/30 12:54:50;;;;;;;;;;;16.10;62.90;;;;;;4987979;28;19975;-89
2023/04/30 12:57:18;;;;;;;;;;;16.00;58.40;;;;;;4988912;28;19960;-89
2023/04/30 12:59:53;;;;;;;;;;;16.10;57.10;;;;;;4992293;28;19918;-90
2023/04/30 13:02:22;;;;;;;;;;;16.00;56.70;;;;;;5008266;28;19968;-89
2023/04/30 13:04:48;;;;;;;;;;;15.80;59.00;;;;;;4989458;28;19955;-89
2023/04/30 13:07:13;;;;;;;;;;;15.60;60.60;;;;;;4989200;28;19945;-89
2023/04/30 13:09:45;;;;;;;;;;;15.50;60.20;;;;;;4993004;28;19910;-88
2023/04/30 13:12:16;;;;;;;;;;;15.70;58.70;;;;;;4983771;28;19964;-89
2023/04/30 13:14:42;;;;;;;;;;;15.90;60.30;;;;;;5007055;28;19940;-89
2023/04/30 13:17:09;;;;;;;;;;;15.90;60.40;;;;;;5009834;28;19976;-89
2023/04/30 13:19:35;;;;;;;;;;;16.00;61.40;;;;;;4991292;28;20390;-89
2023/04/30 13:22:00;;;;;;;;;;;16.10;58.10;;;;;;4991764;28;19933;-86
2023/04/30 13:24:26;;;;;;;;;;;16.20;58.00;;;;;;5016699;28;19968;-88
2023/04/30 13:26:52;;;;;;;;;;;16.20;57.50;;;;;;4996761;28;19913;-87
2023/04/30 13:29:19;;;;;;;;;;;16.30;59.60;;;;;;4976385;28;19916;-87
2023/04/30 13:31:47;;;;;;;;;;;16.20;57.90;;;;;;4974859;28;20457;-87
2023/04/30 13:34:13;;;;;;;;;;;16.40;57.40;;;;;;4977125;28;19960;-87
2023/04/30 13:36:38;;;;;;;;;;;16.40;57.40;;;;;;4994431;28;19913;-87
2023/04/30 13:39:04;;;;;;;;;;;16.60;57.80;;;;;;4979328;28;19909;-87
2023/04/30 13:41:29;;;;;;;;;;;16.70;57.80;;;;;;4975257;28;20076;-87
2023/04/30 13:43:55;;;;;;;;;;;16.60;55.40;;;;;;4975747;28;19960;-87
2023/04/30 13:46:20;;;;;;;;;;;16.50;54.60;;;;;;4974865;28;19910;-87
2023/04/30 13:48:48;;;;;;;;;;;16.50;56.30;;;;;;4974125;28;19910;-87
2023/04/30 13:51:14;;;;;;;;;;;16.70;57.70;;;;;;4992210;28;20379;-86
2023/04/30 13:53:39;;;;;;;;;;;16.80;56.60;;;;;;4988774;28;19929;-87
2023/04/30 13:56:05;;;;;;;;;;;16.60;56.00;;;;;;4989732;28;19913;-86
2023/04/30 13:58:31;;;;;;;;;;;16.50;55.20;;;;;;4986882;28;19913;-86
2023/04/30 14:00:57;;;;;;;;;;;16.40;55.40;;;;;;4992452;28;20441;-86
2023/04/30 14:03:22;;;;;;;;;;;16.40;54.80;;;;;;5007915;28;19917;-87
2023/04/30 14:05:48;;;;;;;;;;;16.50;55.70;;;;;;4974931;28;20281;-87
2023/04/30 14:08:13;;;;;;;;;;;16.40;54.80;;;;;;4981671;28;20012;-87
2023/04/30 14:10:38;;;;;;;;;;;16.20;55.50;;;;;;4986318;28;19910;-87
2023/04/30 14:13:04;;;;;;;;;;;16.50;58.40;;;;;;5009001;28;20000;-87
2023/04/30 14:15:31;;;;;;;;;;;16.50;54.70;;;;;;4993130;28;19961;-87
2023/04/30 14:17:56;;;;;;;;;;;16.60;56.70;;;;;;4975136;28;19969;-87
2023/04/30 14:20:22;;;;;;;;;;;16.60;54.80;;;;;;4976399;28;19914;-87
2023/04/30 14:22:47;;;;;;;;;;;16.60;52.60;;;;;;4985159;28;20371;-87
2023/04/30 14:25:13;;;;;;;;;;;16.70;54.00;;;;;;4986278;28;20003;-87
2023/04/30 14:27:39;;;;;;;;;;;17.00;55.40;;;;;;5012236;28;19913;-86
2023/04/30 14:30:05;;;;;;;;;;;16.70;54.70;;;;;;4994716;28;19913;-87